Time;durP1;ratioP1;P1;durP2;ratioP2;P2;SDS_P1;SDS_P2;PMS_P1;PMS_P2;Temp;Humidity;BMP_temperature;BMP_pressure;BME280_temperature;BME280_humidity;BME280_pressure;Samples;Min_cycle;Max_cycle;Signal;HPM_P1;HPM_P2
2022/05/15 00:01:43;;;;;;;11.28;3.75;;;15.90;52.00;;;;;;1837077;78;21109;-56
2022/05/15 00:04:12;;;;;;;5.60;3.22;;;15.80;51.60;;;;;;1836982;78;21022;-56
2022/05/15 00:06:42;;;;;;;7.45;2.95;;;15.90;51.70;;;;;;1836992;78;21611;-56
2022/05/15 00:09:11;;;;;;;7.70;3.65;;;15.90;51.60;;;;;;1837024;78;21042;-56
2022/05/15 00:11:41;;;;;;;4.67;2.90;;;16.00;51.40;;;;;;1837186;78;21042;-56
2022/05/15 00:14:10;;;;;;;4.75;3.42;;;16.10;51.50;;;;;;1837158;78;21042;-56
2022/05/15 00:16:40;;;;;;;5.70;2.65;;;16.10;51.40;;;;;;1837181;78;21042;-56
2022/05/15 00:19:09;;;;;;;3.62;2.50;;;16.10;51.30;;;;;;1836972;78;21022;-56
2022/05/15 00:21:38;;;;;;;6.45;2.90;;;16.20;51.80;;;;;;1837195;77;21042;-56
2022/05/15 00:24:08;;;;;;;7.25;2.80;;;16.30;51.60;;;;;;1837180;77;21473;-56
2022/05/15 00:26:38;;;;;;;5.72;2.83;;;16.30;51.20;;;;;;1837176;78;21133;-56
2022/05/15 00:29:08;;;;;;;4.70;3.35;;;16.30;51.40;;;;;;1837121;78;21117;-56
2022/05/15 00:31:37;;;;;;;4.53;2.80;;;16.30;51.30;;;;;;1837144;77;21081;-56
2022/05/15 00:34:06;;;;;;;6.80;3.60;;;16.30;51.70;;;;;;1837047;78;21050;-56
2022/05/15 00:36:36;;;;;;;4.80;3.33;;;16.30;51.70;;;;;;1837061;78;21109;-56
2022/05/15 00:39:06;;;;;;;4.10;3.22;;;16.20;51.60;;;;;;1837157;77;21104;-56
2022/05/15 00:41:37;;;;;;;4.58;3.20;;;16.10;51.20;;;;;;1837031;78;21046;-56
2022/05/15 00:44:08;;;;;;;2.17;1.52;;;16.00;51.80;;;;;;1837227;78;21022;-56
2022/05/15 00:46:40;;;;;;;5.90;2.83;;;15.90;51.20;;;;;;1837221;78;21050;-56
2022/05/15 00:49:12;;;;;;;7.08;2.65;;;15.90;51.00;;;;;;1837186;77;21089;-56
2022/05/15 00:51:48;;;;;;;4.12;2.17;;;15.80;51.10;;;;;;1837091;78;21136;-56
2022/05/15 00:54:35;;;;;;;2.67;2.12;;;15.80;50.80;;;;;;1837150;78;21151;-56
2022/05/15 00:57:33;;;;;;;2.87;2.15;;;15.80;50.40;;;;;;1837093;78;21050;-56
2022/05/15 01:00:08;;;;;;;5.22;1.90;;;15.80;49.90;;;;;;1853461;76;21069;-56
2022/05/15 01:02:47;;;;;;;2.80;2.00;;;15.80;49.10;;;;;;1855101;77;21143;-56
2022/05/15 01:05:17;;;;;;;2.72;1.95;;;15.70;47.90;;;;;;1855103;77;21009;-56
2022/05/15 01:07:47;;;;;;;4.60;1.70;;;15.70;47.90;;;;;;1854985;76;21093;-56
2022/05/15 01:10:16;;;;;;;6.50;2.00;;;15.70;47.30;;;;;;1854994;76;21472;-56
2022/05/15 01:12:46;;;;;;;2.87;2.55;;;15.70;46.90;;;;;;1854948;77;21042;-56
2022/05/15 01:15:19;;;;;;;1.72;1.40;;;15.80;46.60;;;;;;1854903;76;21132;-56
2022/05/15 01:17:49;;;;;;;1.40;1.30;;;15.80;45.90;;;;;;1855073;76;21103;-56
2022/05/15 01:20:21;;;;;;;2.83;1.47;;;15.80;45.50;;;;;;1855015;77;21050;-56
2022/05/15 01:22:52;;;;;;;3.10;1.60;;;15.90;45.00;;;;;;1854914;76;21029;-56
2022/05/15 01:25:24;;;;;;;1.90;1.37;;;15.90;44.80;;;;;;1854967;76;21123;-56
2022/05/15 01:28:08;;;;;;;3.25;1.65;;;15.90;44.50;;;;;;1855033;77;21061;-56
2022/05/15 01:30:41;;;;;;;4.95;1.80;;;16.00;44.40;;;;;;1847166;76;21045;-56
2022/05/15 01:33:11;;;;;;;2.25;1.45;;;16.00;44.30;;;;;;1854955;76;21182;-56
2022/05/15 01:35:40;;;;;;;3.05;1.75;;;16.10;44.20;;;;;;1855070;77;21037;-56
2022/05/15 01:38:10;;;;;;;2.85;1.75;;;16.00;44.10;;;;;;1854931;77;21042;-56
2022/05/15 01:40:41;;;;;;;3.35;1.82;;;16.10;44.20;;;;;;1855025;76;21037;-56
2022/05/15 01:43:11;;;;;;;10.40;2.60;;;16.10;44.60;;;;;;1855032;77;21065;-56
2022/05/15 01:45:41;;;;;;;6.10;2.52;;;16.00;45.40;;;;;;1855006;77;21041;-56
2022/05/15 01:48:10;;;;;;;3.85;2.45;;;15.90;45.80;;;;;;1854999;76;21099;-56
2022/05/15 01:50:40;;;;;;;4.97;2.00;;;15.80;46.10;;;;;;1854931;76;21041;-56
2022/05/15 01:53:10;;;;;;;3.33;2.00;;;15.80;46.50;;;;;;1855112;77;21022;-56
2022/05/15 01:55:39;;;;;;;4.85;2.70;;;15.70;47.10;;;;;;1855121;76;21037;-55
2022/05/15 01:58:10;;;;;;;2.55;2.08;;;15.60;47.60;;;;;;1855055;76;21053;-56
2022/05/15 02:00:40;;;;;;;2.67;1.92;;;15.60;47.90;;;;;;1843523;77;21140;-56
2022/05/15 02:03:10;;;;;;;4.28;1.87;;;15.60;48.30;;;;;;1843466;77;21045;-56
2022/05/15 02:05:39;;;;;;;3.17;1.98;;;15.60;48.70;;;;;;1843556;78;21045;-56
2022/05/15 02:08:09;;;;;;;3.10;2.27;;;15.60;48.80;;;;;;1843546;77;21045;-56
2022/05/15 02:10:38;;;;;;;5.87;2.15;;;15.60;48.60;;;;;;1843615;77;21022;-56
2022/05/15 02:13:09;;;;;;;2.30;2.10;;;15.60;48.50;;;;;;1843559;78;21062;-56
2022/05/15 02:15:38;;;;;;;2.87;2.08;;;15.70;48.60;;;;;;1843561;77;21145;-57
2022/05/15 02:18:07;;;;;;;2.45;1.80;;;15.70;49.00;;;;;;1843536;78;21065;-56
2022/05/15 02:20:37;;;;;;;2.25;1.87;;;15.70;49.10;;;;;;1843551;77;21151;-56
2022/05/15 02:23:06;;;;;;;3.27;1.82;;;15.80;49.10;;;;;;1843666;78;21115;-56
2022/05/15 02:25:38;;;;;;;3.42;1.82;;;15.90;48.70;;;;;;1843461;77;21061;-56
2022/05/15 02:28:07;;;;;;;5.00;1.92;;;16.00;48.50;;;;;;1843605;78;21515;-56
2022/05/15 02:30:36;;;;;;;2.33;2.00;;;16.10;48.70;;;;;;1843567;77;21034;-56
2022/05/15 02:33:06;;;;;;;2.35;1.60;;;16.20;48.70;;;;;;1843658;78;21147;-56
2022/05/15 02:35:36;;;;;;;3.40;2.10;;;16.50;48.60;;;;;;1843555;77;21030;-56
2022/05/15 02:38:05;;;;;;;3.02;1.90;;;16.70;48.20;;;;;;1843577;77;21058;-56
2022/05/15 02:40:35;;;;;;;4.22;1.87;;;16.80;48.00;;;;;;1843390;78;21123;-56
2022/05/15 02:43:04;;;;;;;4.67;2.20;;;16.70;47.70;;;;;;1843558;78;21049;-57
2022/05/15 02:45:34;;;;;;;2.30;1.47;;;16.70;47.80;;;;;;1843538;78;21050;-57
2022/05/15 02:48:04;;;;;;;3.30;2.02;;;16.70;48.00;;;;;;1843847;77;21066;-56
2022/05/15 02:53:20;;;;;;;2.65;1.92;;;16.70;48.40;;;;;;1843677;77;21058;-56
2022/05/15 02:55:50;;;;;;;2.33;1.95;;;16.70;48.50;;;;;;1843516;78;21050;-56
2022/05/15 02:58:20;;;;;;;4.80;1.80;;;16.50;48.40;;;;;;1843627;78;21046;-57
2022/05/15 03:00:49;;;;;;;3.52;1.85;;;16.50;48.40;;;;;;1843284;77;21061;-57
2022/05/15 03:03:19;;;;;;;3.52;1.80;;;16.40;48.80;;;;;;1843228;76;21038;-57
2022/05/15 03:05:49;;;;;;;2.45;1.92;;;16.40;49.00;;;;;;1843345;77;21066;-57
2022/05/15 03:08:18;;;;;;;3.33;1.98;;;16.40;48.90;;;;;;1843303;77;21045;-57
2022/05/15 03:10:47;;;;;;;3.25;1.67;;;16.40;48.50;;;;;;1843302;78;21143;-57
2022/05/15 03:13:17;;;;;;;6.17;1.90;;;16.50;48.00;;;;;;1843291;76;21101;-57
2022/05/15 03:15:46;;;;;;;3.70;1.90;;;16.50;47.90;;;;;;1843257;77;21057;-57
2022/05/15 03:18:16;;;;;;;3.05;1.95;;;16.60;46.80;;;;;;1843279;76;21100;-57
2022/05/15 03:20:45;;;;;;;3.45;1.70;;;16.60;47.00;;;;;;1843373;76;21042;-57
2022/05/15 03:23:14;;;;;;;3.20;2.02;;;16.60;46.60;;;;;;1843330;76;21123;-57
2022/05/15 03:25:44;;;;;;;3.25;2.00;;;16.60;46.50;;;;;;1843364;78;21116;-57
2022/05/15 03:28:13;;;;;;;4.58;1.95;;;16.70;46.30;;;;;;1843377;77;21120;-57
2022/05/15 03:30:44;;;;;;;6.67;2.12;;;16.70;46.10;;;;;;1843364;77;21468;-57
2022/05/15 03:33:15;;;;;;;3.47;1.70;;;16.80;46.30;;;;;;1843406;77;21050;-56
2022/05/15 03:35:44;;;;;;;2.22;1.85;;;16.90;46.10;;;;;;1843293;78;21465;-56
2022/05/15 03:38:14;;;;;;;1.67;1.45;;;17.00;45.80;;;;;;1843275;78;21452;-56
2022/05/15 03:40:43;;;;;;;2.60;1.87;;;17.00;45.30;;;;;;1843267;77;21022;-56
2022/05/15 03:43:13;;;;;;;2.47;1.45;;;17.10;44.80;;;;;;1843344;77;21135;-56
2022/05/15 03:45:43;;;;;;;3.92;1.92;;;17.20;44.90;;;;;;1843347;76;21049;-57
2022/05/15 03:48:12;;;;;;;4.03;1.95;;;17.30;45.20;;;;;;1843288;78;21045;-57
2022/05/15 03:50:42;;;;;;;4.67;2.15;;;17.30;47.20;;;;;;1843238;77;21042;-56
2022/05/15 03:53:11;;;;;;;3.62;2.08;;;17.40;47.30;;;;;;1843261;77;21026;-56
2022/05/15 03:55:41;;;;;;;4.05;2.27;;;17.40;48.40;;;;;;1843262;76;21108;-56
2022/05/15 03:58:10;;;;;;;3.10;2.12;;;17.40;49.20;;;;;;1843476;76;21045;-56
2022/05/15 04:00:39;;;;;;;5.58;1.98;;;17.30;49.50;;;;;;1843258;77;21140;-56
2022/05/15 04:03:10;;;;;;;4.05;2.20;;;17.20;49.80;;;;;;1843180;77;21050;-56
2022/05/15 04:05:39;;;;;;;6.55;3.90;;;17.20;50.60;;;;;;1843108;78;21042;-56
2022/05/15 04:08:10;;;;;;;9.43;5.35;;;17.00;50.50;;;;;;1843149;76;21037;-56
2022/05/15 04:10:39;;;;;;;7.22;3.75;;;17.00;50.70;;;;;;1843230;78;21046;-56
2022/05/15 04:13:09;;;;;;;5.12;2.60;;;17.00;51.10;;;;;;1843200;76;21038;-56
2022/05/15 04:15:38;;;;;;;5.90;3.12;;;17.10;51.40;;;;;;1843153;76;21116;-56
2022/05/15 04:18:13;;;;;;;7.03;2.70;;;17.20;51.50;;;;;;1843220;77;21155;-56
2022/05/15 04:20:39;;;;;;;13.85;4.78;;;17.40;51.20;;;;;;1842013;76;21046;-56
2022/05/15 04:23:09;;;;;;;3.15;2.33;;;17.50;51.00;;;;;;1843165;78;21050;-56
2022/05/15 04:25:38;;;;;;;3.95;1.98;;;17.50;50.60;;;;;;1843143;77;21046;-56
2022/05/15 04:28:08;;;;;;;6.35;2.83;;;17.50;50.30;;;;;;1843255;77;21159;-56
2022/05/15 04:30:37;;;;;;;6.30;2.20;;;17.60;50.00;;;;;;1843233;77;21159;-56
2022/05/15 04:33:07;;;;;;;2.52;1.70;;;17.80;49.90;;;;;;1843232;76;21049;-56
2022/05/15 04:35:36;;;;;;;4.00;2.65;;;17.90;49.60;;;;;;1843123;77;21112;-57
2022/05/15 04:38:06;;;;;;;9.13;2.20;;;18.00;49.10;;;;;;1843242;77;21049;-57
2022/05/15 04:40:36;;;;;;;3.77;2.90;;;18.10;48.30;;;;;;1843255;78;21559;-56
2022/05/15 04:43:06;;;;;;;3.98;2.10;;;18.30;47.70;;;;;;1843097;77;21163;-56
2022/05/15 04:45:35;;;;;;;3.30;2.20;;;18.40;47.30;;;;;;1843107;76;21116;-57
2022/05/15 04:48:05;;;;;;;2.67;1.85;;;18.60;46.90;;;;;;1843208;77;21119;-57
2022/05/15 04:50:37;;;;;;;3.33;2.00;;;18.70;47.00;;;;;;1843203;78;21132;-56
2022/05/15 04:53:06;;;;;;;3.00;1.98;;;18.90;46.60;;;;;;1843297;78;21049;-56
2022/05/15 04:55:35;;;;;;;4.03;2.52;;;19.00;46.40;;;;;;1843056;76;21132;-57
2022/05/15 04:58:05;;;;;;;2.33;1.60;;;19.20;46.20;;;;;;1843201;76;21026;-56
2022/05/15 05:00:34;;;;;;;3.47;2.12;;;19.30;45.60;;;;;;1843109;77;22653;-57
2022/05/15 05:03:03;;;;;;;2.72;2.00;;;19.40;45.80;;;;;;1843185;78;21018;-57
2022/05/15 05:05:33;;;;;;;3.70;1.87;;;19.40;45.40;;;;;;1843061;76;21112;-57
2022/05/15 05:08:02;;;;;;;3.87;2.40;;;19.40;45.30;;;;;;1843150;78;21123;-56
2022/05/15 05:10:32;;;;;;;3.27;1.70;;;19.40;45.30;;;;;;1843125;77;21021;-56
2022/05/15 05:13:01;;;;;;;7.15;2.10;;;19.40;45.30;;;;;;1843147;77;21153;-56
2022/05/15 05:15:31;;;;;;;4.25;2.08;;;19.50;45.50;;;;;;1842878;76;21069;-57
2022/05/15 05:18:00;;;;;;;2.83;2.12;;;19.50;45.60;;;;;;1843041;77;21050;-57
2022/05/15 05:20:30;;;;;;;4.12;2.00;;;19.70;45.60;;;;;;1843175;76;21211;-57
2022/05/15 05:22:59;;;;;;;3.33;2.25;;;19.80;45.70;;;;;;1843122;77;21058;-56
2022/05/15 05:25:28;;;;;;;3.35;1.98;;;19.90;45.60;;;;;;1843012;76;21084;-57
2022/05/15 05:27:58;;;;;;;5.17;2.35;;;20.00;45.40;;;;;;1843180;76;21143;-56
2022/05/15 05:30:27;;;;;;;2.65;2.27;;;20.20;45.40;;;;;;1843190;76;21026;-56
2022/05/15 05:32:57;;;;;;;2.92;2.00;;;20.30;45.30;;;;;;1843177;76;21050;-57
2022/05/15 05:35:27;;;;;;;2.52;2.08;;;20.50;44.60;;;;;;1843056;78;21069;-57
2022/05/15 05:37:56;;;;;;;5.03;2.72;;;20.60;44.40;;;;;;1843206;77;21017;-57
2022/05/15 05:40:26;;;;;;;6.05;2.65;;;20.70;44.20;;;;;;1843216;77;21116;-57
2022/05/15 05:42:55;;;;;;;3.20;2.10;;;20.70;44.20;;;;;;1843103;78;21031;-56
2022/05/15 05:45:25;;;;;;;6.53;3.20;;;20.80;44.30;;;;;;1843165;78;21049;-56
2022/05/15 05:47:55;;;;;;;6.28;2.70;;;20.80;44.30;;;;;;1843095;76;21046;-57
2022/05/15 05:50:27;;;;;;;2.65;2.10;;;20.90;44.30;;;;;;1843119;76;21057;-56
2022/05/15 05:52:58;;;;;;;2.42;2.00;;;20.90;43.90;;;;;;1843052;78;21026;-56
2022/05/15 05:55:28;;;;;;;2.60;2.05;;;20.90;43.80;;;;;;1843049;76;21128;-56
2022/05/15 05:57:57;;;;;;;4.72;1.98;;;20.80;43.90;;;;;;1843158;76;21120;-56
2022/05/15 06:00:29;;;;;;;3.60;2.60;;;20.80;44.10;;;;;;1843062;78;21068;-56
2022/05/15 06:05:50;;;;;;;5.30;2.02;;;20.80;44.30;;;;;;1843169;76;21069;-57
2022/05/15 06:08:20;;;;;;;3.35;2.25;;;20.90;44.00;;;;;;1843450;78;21456;-56
2022/05/15 06:10:50;;;;;;;4.42;2.10;;;21.00;44.10;;;;;;1843140;76;21054;-57
2022/05/15 06:13:20;;;;;;;6.35;2.22;;;21.20;44.20;;;;;;1843001;76;21045;-57
2022/05/15 06:15:49;;;;;;;6.08;2.08;;;21.30;44.00;;;;;;1843074;77;21022;-57
2022/05/15 06:18:19;;;;;;;2.87;2.00;;;21.50;44.20;;;;;;1843055;76;21046;-56
2022/05/15 06:20:49;;;;;;;3.95;2.30;;;21.60;44.10;;;;;;1843124;77;21034;-56
2022/05/15 06:23:19;;;;;;;2.10;1.90;;;21.80;44.00;;;;;;1843046;77;21085;-57
2022/05/15 06:25:48;;;;;;;10.50;2.60;;;21.80;43.80;;;;;;1842994;77;21077;-57
2022/05/15 06:28:17;;;;;;;6.87;2.30;;;21.90;43.90;;;;;;1843201;78;21484;-57
2022/05/15 06:30:46;;;;;;;4.00;2.20;;;22.00;44.60;;;;;;1843087;76;21027;-57
2022/05/15 06:33:16;;;;;;;3.87;2.05;;;22.00;44.10;;;;;;1843019;78;21046;-57
2022/05/15 06:35:45;;;;;;;3.20;2.22;;;22.20;43.60;;;;;;1843049;78;21049;-57
2022/05/15 06:38:14;;;;;;;3.85;2.50;;;22.20;44.00;;;;;;1843049;77;21481;-56
2022/05/15 06:40:44;;;;;;;2.47;1.82;;;22.30;43.70;;;;;;1843221;77;21046;-57
2022/05/15 06:43:13;;;;;;;3.45;2.30;;;22.40;43.30;;;;;;1843178;78;21130;-56
2022/05/15 06:45:43;;;;;;;3.83;2.12;;;22.50;43.40;;;;;;1843228;77;21165;-56
2022/05/15 06:48:13;;;;;;;3.65;2.20;;;22.60;43.00;;;;;;1843137;78;21103;-56
2022/05/15 06:50:42;;;;;;;10.88;2.40;;;22.60;43.00;;;;;;1843038;77;21057;-56
2022/05/15 06:53:13;;;;;;;5.42;2.47;;;22.70;43.40;;;;;;1843296;78;21046;-56
2022/05/15 06:57:28;;;;;;;11.15;2.55;;;22.70;43.30;;;;;;1842893;77;21046;-56
2022/05/15 06:58:13;;;;;;;3.70;2.40;;;22.60;43.70;;;;;;1847579;76;21485;-56
2022/05/15 07:00:42;;;;;;;7.90;2.55;;;22.50;43.60;;;;;;1843220;77;21089;-56
2022/05/15 07:03:12;;;;;;;2.83;1.92;;;22.40;43.50;;;;;;1843123;77;21082;-56
2022/05/15 07:05:41;;;;;;;5.15;2.27;;;22.20;43.60;;;;;;1843101;78;21050;-56
2022/05/15 07:08:11;;;;;;;5.28;2.40;;;22.20;43.70;;;;;;1843225;76;21038;-56
2022/05/15 07:10:41;;;;;;;3.87;2.27;;;22.10;44.00;;;;;;1843133;77;21105;-56
2022/05/15 07:13:10;;;;;;;2.75;2.17;;;22.00;44.10;;;;;;1843081;78;21108;-56
2022/05/15 07:15:39;;;;;;;6.15;2.45;;;22.00;43.70;;;;;;1843147;76;21050;-56
2022/05/15 07:18:09;;;;;;;10.98;2.77;;;22.00;43.80;;;;;;1843384;78;21104;-56
2022/05/15 07:20:39;;;;;;;3.62;2.10;;;22.00;44.00;;;;;;1843211;77;21065;-56
2022/05/15 07:23:08;;;;;;;8.58;2.52;;;22.10;44.00;;;;;;1843147;78;21567;-56
2022/05/15 07:25:38;;;;;;;6.00;2.42;;;22.20;43.80;;;;;;1843171;76;21010;-56
2022/05/15 07:28:08;;;;;;;4.50;2.20;;;22.20;43.70;;;;;;1843044;77;21120;-56
2022/05/15 07:30:38;;;;;;;8.85;3.42;;;22.20;43.80;;;;;;1843027;77;21201;-56
2022/05/15 07:33:07;;;;;;;3.92;2.20;;;22.30;44.20;;;;;;1843168;77;21073;-56
2022/05/15 07:35:36;;;;;;;5.03;2.80;;;22.40;44.50;;;;;;1843087;76;21124;-56
2022/05/15 07:38:06;;;;;;;6.50;3.22;;;22.40;44.50;;;;;;1843215;77;21046;-56
2022/05/15 07:40:35;;;;;;;5.58;2.85;;;22.50;45.20;;;;;;1843160;77;21046;-56
2022/05/15 07:43:09;;;;;;;4.60;2.20;;;22.60;44.60;;;;;;1843151;76;21054;-56
2022/05/15 07:45:38;;;;;;;;;;;22.70;44.60;;;;;;1845935;77;21104;-56
2022/05/15 07:48:08;;;;;;;3.35;2.45;;;22.80;44.60;;;;;;1843192;77;20189;-56
2022/05/15 07:50:38;;;;;;;7.83;2.80;;;22.80;44.80;;;;;;1842993;77;21045;-56
2022/05/15 07:53:08;;;;;;;3.33;2.35;;;22.90;44.90;;;;;;1843112;76;21105;-56
2022/05/15 07:55:37;;;;;;;4.75;2.60;;;23.00;44.60;;;;;;1843056;77;21531;-56
2022/05/15 07:58:07;;;;;;;3.65;2.52;;;23.10;45.00;;;;;;1843096;77;21123;-56
2022/05/15 08:00:36;;;;;;;4.90;2.67;;;23.10;45.90;;;;;;1843144;78;21042;-56
2022/05/15 08:03:08;;;;;;;3.05;2.62;;;23.20;46.50;;;;;;1843327;76;21073;-56
2022/05/15 08:08:26;;;;;;;3.35;2.50;;;23.20;47.00;;;;;;1843464;78;21547;-56
2022/05/15 08:10:56;;;;;;;4.67;2.52;;;23.10;46.90;;;;;;1843404;77;21123;-56
2022/05/15 08:13:28;;;;;;;3.02;2.45;;;23.10;47.40;;;;;;1843534;78;21225;-56
2022/05/15 08:15:57;;;;;;;6.35;2.83;;;23.10;47.40;;;;;;1843430;78;21116;-57
2022/05/15 08:24:02;;;;;;;4.47;2.67;;;23.10;47.40;;;;;;1843398;78;21054;-56
2022/05/15 08:26:33;;;;;;;6.80;2.92;;;23.10;47.50;;;;;;1843398;78;21578;-56
2022/05/15 08:29:02;;;;;;;4.08;2.92;;;23.10;47.90;;;;;;1843517;78;21022;-56
2022/05/15 08:31:31;;;;;;;7.00;3.95;;;23.20;47.80;;;;;;1843324;78;21112;-56
2022/05/15 08:34:01;;;;;;;4.20;3.00;;;23.20;47.70;;;;;;1843311;78;21066;-56
2022/05/15 08:36:30;;;;;;;8.15;3.20;;;23.30;47.50;;;;;;1843431;78;21038;-56
2022/05/15 08:39:00;;;;;;;7.10;2.90;;;23.40;47.60;;;;;;1843515;78;21049;-56
2022/05/15 08:41:41;;;;;;;6.28;3.27;;;23.40;47.40;;;;;;1843567;77;21115;-56
2022/05/15 08:44:29;;;;;;;6.58;2.45;;;23.50;47.40;;;;;;1843410;77;21085;-58
2022/05/15 08:47:17;;;;;;;4.40;2.15;;;23.60;47.40;;;;;;1841941;78;21038;-58
2022/05/15 08:49:48;;;;;;;4.85;3.60;;;23.60;47.10;;;;;;1843495;78;21018;-57
2022/05/15 08:52:55;;;;;;;5.40;2.65;;;23.70;47.30;;;;;;1843405;78;21512;-58
2022/05/15 08:55:27;;;;;;;7.65;3.22;;;23.70;48.00;;;;;;1843400;77;21092;-57
2022/05/15 08:58:02;;;;;;;2.87;2.65;;;23.70;47.60;;;;;;1825037;77;21077;-57
2022/05/15 09:00:38;;;;;;;4.95;2.87;;;23.70;47.60;;;;;;1842333;77;21054;-58
2022/05/15 09:03:19;;;;;;;5.42;2.62;;;23.70;47.60;;;;;;1843316;76;21054;-57
2022/05/15 09:05:57;;;;;;;5.33;2.70;;;23.70;47.70;;;;;;1843132;78;21061;-58
2022/05/15 09:08:48;;;;;;;4.35;3.12;;;23.80;47.80;;;;;;1843092;78;21149;-58
2022/05/15 09:11:23;;;;;;;10.55;3.30;;;23.90;47.80;;;;;;1842779;77;21038;-57
2022/05/15 09:13:55;;;;;;;5.70;3.08;;;23.90;47.60;;;;;;1837565;76;21042;-57
2022/05/15 09:16:30;;;;;;;5.33;2.87;;;23.90;47.90;;;;;;1843028;77;21065;-58
2022/05/15 09:19:06;;;;;;;6.62;2.70;;;23.90;47.60;;;;;;1843276;76;21034;-57
2022/05/15 09:21:36;;;;;;;4.62;3.00;;;23.90;47.70;;;;;;1843121;78;21042;-58
2022/05/15 09:24:08;;;;;;;4.83;2.92;;;23.90;48.00;;;;;;1843070;77;21038;-58
2022/05/15 09:26:45;;;;;;;5.58;2.80;;;24.00;47.90;;;;;;1843180;76;21488;-58
2022/05/15 09:29:26;;;;;;;6.87;3.12;;;24.00;47.90;;;;;;1843003;78;21065;-58
2022/05/15 09:31:55;;;;;;;10.28;3.00;;;24.00;48.00;;;;;;1843096;76;21042;-58
2022/05/15 09:34:35;;;;;;;4.62;2.65;;;24.10;48.00;;;;;;1843107;78;21042;-58
2022/05/15 09:39:55;;;;;;;4.25;2.87;;;24.10;47.40;;;;;;1843170;76;21139;-58
2022/05/15 09:45:19;;;;;;;3.37;2.52;;;24.20;47.50;;;;;;1843056;77;21097;-58
2022/05/15 09:48:00;;;;;;;26.73;4.60;;;24.20;47.50;;;;;;1843165;77;21108;-57
2022/05/15 09:50:41;;;;;;;5.58;2.72;;;24.30;47.40;;;;;;1843196;77;21097;-58
2022/05/15 09:53:16;;;;;;;7.33;2.85;;;24.20;47.30;;;;;;1843108;77;21070;-58
2022/05/15 09:56:07;;;;;;;2.95;2.33;;;24.20;47.40;;;;;;1842868;78;21038;-57
2022/05/15 09:58:43;;;;;;;4.72;3.02;;;24.30;47.10;;;;;;1843157;77;21033;-58
2022/05/15 10:01:17;;;;;;;6.95;3.20;;;24.30;47.10;;;;;;1841202;77;21120;-58
2022/05/15 10:03:47;;;;;;;;;;;24.40;47.30;;;;;;1843435;77;21548;-58
2022/05/15 10:06:19;;;;;;;7.20;3.25;;;24.50;46.50;;;;;;1843112;76;20107;-57
2022/05/15 10:09:06;;;;;;;9.60;4.10;;;24.40;46.90;;;;;;1843016;76;21038;-57
2022/05/15 10:11:38;;;;;;;8.23;3.40;;;24.40;47.00;;;;;;1842279;78;21140;-58
2022/05/15 10:14:10;;;;;;;5.40;2.80;;;24.40;47.20;;;;;;1843272;76;21496;-57
2022/05/15 10:16:45;;;;;;;2.87;2.30;;;24.50;47.10;;;;;;1842680;77;21101;-58
2022/05/15 10:19:29;;;;;;;3.45;2.85;;;24.50;47.00;;;;;;1841774;78;21042;-58
2022/05/15 10:22:06;;;;;;;3.03;2.73;;;24.40;46.90;;;;;;1796880;76;21046;-58
2022/05/15 10:24:39;;;;;;;11.08;3.27;;;24.40;47.20;;;;;;1841531;76;21045;-58
2022/05/15 10:27:29;;;;;;;4.28;2.55;;;24.50;47.10;;;;;;1843150;77;21488;-58
2022/05/15 10:30:09;;;;;;;5.33;2.52;;;24.50;46.80;;;;;;1843268;77;21525;-56
2022/05/15 10:32:41;;;;;;;4.15;2.42;;;24.40;46.90;;;;;;1843259;78;21516;-56
2022/05/15 10:35:13;;;;;;;4.92;2.27;;;24.40;46.90;;;;;;1843128;76;21100;-56
2022/05/15 10:37:45;;;;;;;4.28;2.67;;;24.40;47.20;;;;;;1842547;76;21512;-56
2022/05/15 10:40:17;;;;;;;3.30;2.40;;;24.50;47.20;;;;;;1842896;76;21042;-56
2022/05/15 10:42:51;;;;;;;3.87;2.83;;;24.50;47.30;;;;;;1843132;78;21554;-56
2022/05/15 10:45:35;;;;;;;3.47;2.90;;;24.60;47.20;;;;;;1842931;78;21051;-57
2022/05/15 10:48:16;;;;;;;10.65;3.22;;;24.70;47.80;;;;;;1843572;78;21497;-57
2022/05/15 10:51:04;;;;;;;5.45;3.05;;;24.70;47.50;;;;;;1843287;77;21038;-57
2022/05/15 10:57:29;;;;;;;5.08;3.22;;;24.80;47.40;;;;;;1843176;78;21139;-57
2022/05/15 11:00:06;;;;;;;5.75;2.83;;;24.80;47.40;;;;;;1843092;76;21229;-57
2022/05/15 11:02:58;;;;;;;10.03;7.83;;;24.70;47.40;;;;;;1843262;77;21042;-57
2022/05/15 11:05:31;;;;;;;5.12;3.80;;;24.70;47.50;;;;;;1842931;77;21089;-57
2022/05/15 11:08:18;;;;;;;6.30;3.17;;;24.70;47.70;;;;;;1843208;78;21112;-57
2022/05/15 11:11:06;;;;;;;6.45;2.98;;;24.80;47.60;;;;;;1842966;77;21045;-57
2022/05/15 11:13:50;;;;;;;4.83;2.83;;;24.90;47.40;;;;;;1843056;77;21109;-57
2022/05/15 11:16:22;;;;;;;5.03;2.97;;;24.80;46.30;;;;;;1842938;77;21500;-57
2022/05/15 11:19:11;;;;;;;2.80;2.10;;;24.80;45.70;;;;;;1842918;76;21825;-57
2022/05/15 11:21:48;;;;;;;5.03;2.80;;;24.80;45.10;;;;;;1842299;77;21090;-57
2022/05/15 11:24:32;;;;;;;5.83;2.80;;;24.80;46.10;;;;;;1843151;76;21504;-57
2022/05/15 11:27:07;;;;;;;11.22;3.12;;;24.80;46.50;;;;;;1843263;78;21010;-57
2022/05/15 11:29:37;;;;;;;;;;;24.90;46.60;;;;;;1845533;77;21128;-57
2022/05/15 11:32:08;;;;;;;3.27;2.87;;;24.90;46.60;;;;;;1843139;76;20108;-57
2022/05/15 11:34:57;;;;;;;4.80;2.60;;;24.90;45.10;;;;;;1839686;76;21069;-57
2022/05/15 11:37:41;;;;;;;22.93;11.88;;;24.80;44.00;;;;;;1827086;78;21135;-57
2022/05/15 11:40:13;;;;;;;24.15;8.90;;;24.80;43.60;;;;;;1843253;78;21575;-57
2022/05/15 11:42:43;;;;;;;12.88;6.20;;;24.70;43.00;;;;;;1840875;77;21062;-56
2022/05/15 11:45:32;;;;;;;19.05;3.25;;;24.60;44.00;;;;;;1843128;77;21018;-55
2022/05/15 11:48:13;;;;;;;9.63;2.80;;;24.70;44.70;;;;;;1830082;78;21068;-58
2022/05/15 11:50:54;;;;;;;11.78;3.12;;;24.60;45.60;;;;;;1842581;77;21179;-58
2022/05/15 11:53:35;;;;;;;10.35;2.50;;;24.70;45.70;;;;;;1843400;78;21473;-56
2022/05/15 11:56:23;;;;;;;7.90;2.50;;;24.70;45.40;;;;;;1841075;76;21542;-56
2022/05/15 11:59:01;;;;;;;8.73;4.20;;;24.60;44.90;;;;;;1842856;77;21128;-57
2022/05/15 12:01:38;;;;;;;4.87;3.25;;;24.50;45.10;;;;;;1842946;78;21558;-56
2022/05/15 12:04:09;;;;;;;3.52;3.20;;;24.50;45.50;;;;;;1843158;78;21069;-56
2022/05/15 12:06:59;;;;;;;3.70;3.33;;;24.50;45.60;;;;;;1843329;77;21078;-56
2022/05/15 12:09:44;;;;;;;11.90;3.10;;;24.50;45.10;;;;;;1843191;77;21065;-56
2022/05/15 12:12:28;;;;;;;8.85;3.12;;;24.40;45.10;;;;;;1843383;78;21057;-56
2022/05/15 12:15:19;;;;;;;2.95;2.67;;;24.20;44.50;;;;;;1843332;76;21133;-56
2022/05/15 12:18:01;;;;;;;3.12;2.77;;;24.00;44.00;;;;;;1843278;76;21006;-56
2022/05/15 12:20:33;;;;;;;7.20;3.42;;;23.90;44.60;;;;;;1843006;76;21124;-56
2022/05/15 12:23:08;;;;;;;6.95;3.40;;;23.70;44.40;;;;;;1843212;78;21030;-56
2022/05/15 12:25:59;;;;;;;5.55;2.52;;;23.70;44.80;;;;;;1842514;78;21115;-56
2022/05/15 12:31:20;;;;;;;4.12;2.70;;;23.60;44.20;;;;;;1843054;76;21120;-56
2022/05/15 12:33:50;;;;;;;4.78;2.45;;;23.60;43.30;;;;;;1841769;77;21500;-56
2022/05/15 12:36:22;;;;;;;7.28;2.80;;;23.60;43.30;;;;;;1843130;78;21115;-56
2022/05/15 12:38:53;;;;;;;8.83;2.83;;;23.70;43.30;;;;;;1842727;77;21081;-56
2022/05/15 12:41:29;;;;;;;3.20;2.65;;;23.80;42.80;;;;;;1843263;78;21163;-57
2022/05/15 12:44:00;;;;;;;9.63;2.72;;;23.80;42.60;;;;;;1843273;76;21120;-57
2022/05/15 12:46:37;;;;;;;3.87;2.55;;;23.90;42.90;;;;;;1843203;78;21231;-58
2022/05/15 12:49:08;;;;;;;7.33;3.22;;;23.90;43.10;;;;;;1843063;77;21062;-58
2022/05/15 12:51:40;;;;;;;3.20;2.70;;;23.90;43.30;;;;;;1843133;76;21038;-57
2022/05/15 12:54:24;;;;;;;12.63;3.37;;;23.80;43.70;;;;;;1843073;78;21049;-58
2022/05/15 12:57:05;;;;;;;11.25;3.08;;;23.70;43.70;;;;;;1842377;77;21058;-57
2022/05/15 12:59:40;;;;;;;5.60;2.35;;;23.60;44.00;;;;;;1843204;77;21038;-57
2022/05/15 13:02:24;;;;;;;4.05;2.52;;;23.50;44.10;;;;;;1843211;77;21124;-56
2022/05/15 13:04:56;;;;;;;5.95;2.72;;;23.40;44.00;;;;;;1843353;77;21124;-56
2022/05/15 13:07:31;;;;;;;4.45;2.60;;;23.30;44.30;;;;;;1843230;78;21511;-56
2022/05/15 13:10:08;;;;;;;5.67;2.33;;;23.40;44.20;;;;;;1843232;76;21112;-56
2022/05/15 13:12:40;;;;;;;4.75;2.22;;;23.50;43.40;;;;;;1843046;76;21038;-57
2022/05/15 13:15:11;;;;;;;3.80;2.55;;;23.60;43.00;;;;;;1841683;78;21500;-56
2022/05/15 13:17:40;;;;;;;11.18;3.17;;;23.60;42.80;;;;;;1843082;77;21097;-56
2022/05/15 13:20:13;;;;;;;5.00;2.52;;;23.60;42.30;;;;;;1843067;77;21124;-56
2022/05/15 13:22:43;;;;;;;4.72;3.02;;;23.70;42.20;;;;;;1843119;78;21049;-56
2022/05/15 13:25:21;;;;;;;4.37;2.45;;;23.70;42.40;;;;;;1843197;78;21112;-57
2022/05/15 13:27:51;;;;;;;3.58;2.40;;;23.80;42.40;;;;;;1842955;78;21069;-56
2022/05/15 13:30:24;;;;;;;4.97;3.30;;;23.80;42.70;;;;;;1843139;77;21171;-57
2022/05/15 13:32:55;;;;;;;8.30;4.12;;;23.80;45.60;;;;;;1843107;76;21042;-56
2022/05/15 13:35:27;;;;;;;9.43;4.47;;;23.60;48.20;;;;;;1843108;78;21010;-57
2022/05/15 13:37:57;;;;;;;9.08;4.97;;;23.40;49.60;;;;;;1843080;76;21065;-56
2022/05/15 13:43:18;;;;;;;33.05;16.65;;;22.80;50.40;;;;;;1843132;76;21074;-57